Terminal Aerodrome Forecast
Issued by NWS

Home | Current Version | Previous Version | Text Only | Print | Product List | Glossary On
Versions: 1 2 3 4 5 6 7 8 9 10 11 12 13 14 15 16 17 18 19
000
FTUS46 KMTR 230016 AAA
TAFSNS
TAF AMD
KSNS 230016Z 2300/2324 28013KT P6SM SKC
      TEMPO 2300/2303 BKN012
     FM230300 31007KT P6SM OVC009
     FM230600 VRB03KT P6SM OVC005
     FM231700 29006KT P6SM SKC
     FM232000 28013KT P6SM SKC=

USA.gov is the U.S. government's official web portal to all federal, state and local government web resources and services.